sensor_id;sensor_type;location;lat;lon;timestamp;temperature;humidity
14236;DHT22;7202;50.718;7.072;2023-02-28T00:01:35;-0.60;99.90
14236;DHT22;7202;50.718;7.072;2023-02-28T00:04:04;-0.60;99.90
14236;DHT22;7202;50.718;7.072;2023-02-28T00:06:33;-0.70;99.90
14236;DHT22;7202;50.718;7.072;2023-02-28T00:09:01;-0.70;99.90
14236;DHT22;7202;50.718;7.072;2023-02-28T00:11:30;-0.70;99.90
14236;DHT22;7202;50.718;7.072;2023-02-28T00:14:00;-0.70;99.90
14236;DHT22;7202;50.718;7.072;2023-02-28T00:16:29;-0.70;99.90
14236;DHT22;7202;50.718;7.072;2023-02-28T00:18:57;-0.70;99.90
14236;DHT22;7202;50.718;7.072;2023-02-28T00:21:26;-0.70;99.90
14236;DHT22;7202;50.718;7.072;2023-02-28T00:23:55;-0.60;99.90
14236;DHT22;7202;50.718;7.072;2023-02-28T00:26:24;-0.80;99.90
14236;DHT22;7202;50.718;7.072;2023-02-28T00:28:53;-0.70;99.90
14236;DHT22;7202;50.718;7.072;2023-02-28T00:31:24;-0.80;99.90
14236;DHT22;7202;50.718;7.072;2023-02-28T00:33:53;-0.80;99.90
14236;DHT22;7202;50.718;7.072;2023-02-28T00:36:21;-0.90;99.90
14236;DHT22;7202;50.718;7.072;2023-02-28T00:38:50;-0.90;99.90
14236;DHT22;7202;50.718;7.072;2023-02-28T00:41:19;-0.90;99.90
14236;DHT22;7202;50.718;7.072;2023-02-28T00:43:47;-0.90;99.90
14236;DHT22;7202;50.718;7.072;2023-02-28T00:46:16;-0.90;99.90
14236;DHT22;7202;50.718;7.072;2023-02-28T00:48:46;-0.90;99.90
14236;DHT22;7202;50.718;7.072;2023-02-28T00:51:14;-1.00;99.90
14236;DHT22;7202;50.718;7.072;2023-02-28T00:53:43;-1.00;99.90
14236;DHT22;7202;50.718;7.072;2023-02-28T00:56:11;-1.00;99.90
14236;DHT22;7202;50.718;7.072;2023-02-28T00:58:41;-1.00;99.90
14236;DHT22;7202;50.718;7.072;2023-02-28T01:01:09;-1.00;99.90
14236;DHT22;7202;50.718;7.072;2023-02-28T01:03:38;-1.00;99.90
14236;DHT22;7202;50.718;7.072;2023-02-28T01:06:08;-1.00;99.90
14236;DHT22;7202;50.718;7.072;2023-02-28T01:08:38;-1.00;99.90
14236;DHT22;7202;50.718;7.072;2023-02-28T01:11:08;-1.00;99.90
14236;DHT22;7202;50.718;7.072;2023-02-28T01:13:39;-1.00;99.90
14236;DHT22;7202;50.718;7.072;2023-02-28T01:16:08;-1.10;99.90
14236;DHT22;7202;50.718;7.072;2023-02-28T01:18:37;-1.00;99.90
14236;DHT22;7202;50.718;7.072;2023-02-28T01:21:08;-1.00;99.90
14236;DHT22;7202;50.718;7.072;2023-02-28T01:23:38;-1.00;99.90
14236;DHT22;7202;50.718;7.072;2023-02-28T01:26:08;-1.00;99.90
14236;DHT22;7202;50.718;7.072;2023-02-28T01:28:40;-1.00;99.90
14236;DHT22;7202;50.718;7.072;2023-02-28T01:31:09;-1.00;99.90
14236;DHT22;7202;50.718;7.072;2023-02-28T01:33:39;-0.90;99.90
14236;DHT22;7202;50.718;7.072;2023-02-28T01:36:11;-0.90;99.90
14236;DHT22;7202;50.718;7.072;2023-02-28T01:38:40;-0.90;99.90
14236;DHT22;7202;50.718;7.072;2023-02-28T01:41:14;-0.90;99.90
14236;DHT22;7202;50.718;7.072;2023-02-28T01:44:05;-0.90;99.90
14236;DHT22;7202;50.718;7.072;2023-02-28T01:46:35;-0.90;99.90
14236;DHT22;7202;50.718;7.072;2023-02-28T01:49:07;-0.90;99.90
14236;DHT22;7202;50.718;7.072;2023-02-28T01:51:41;-0.90;99.90
14236;DHT22;7202;50.718;7.072;2023-02-28T01:54:16;-0.90;99.90
14236;DHT22;7202;50.718;7.072;2023-02-28T01:56:50;-0.90;99.90
14236;DHT22;7202;50.718;7.072;2023-02-28T01:59:24;-1.00;99.90
14236;DHT22;7202;50.718;7.072;2023-02-28T02:01:55;-1.00;99.90
14236;DHT22;7202;50.718;7.072;2023-02-28T02:04:27;-1.00;99.90
14236;DHT22;7202;50.718;7.072;2023-02-28T02:07:02;-1.00;99.90
14236;DHT22;7202;50.718;7.072;2023-02-28T02:09:31;-1.00;99.90
14236;DHT22;7202;50.718;7.072;2023-02-28T02:12:02;-1.00;99.90
14236;DHT22;7202;50.718;7.072;2023-02-28T02:14:48;-1.10;99.90
14236;DHT22;7202;50.718;7.072;2023-02-28T02:17:26;-1.10;99.90
14236;DHT22;7202;50.718;7.072;2023-02-28T02:23:30;-1.10;99.90
14236;DHT22;7202;50.718;7.072;2023-02-28T02:26:25;-1.20;99.90
14236;DHT22;7202;50.718;7.072;2023-02-28T02:32:24;-1.20;99.90
14236;DHT22;7202;50.718;7.072;2023-02-28T02:35:03;-1.20;99.90
14236;DHT22;7202;50.718;7.072;2023-02-28T02:37:39;-1.30;99.90
14236;DHT22;7202;50.718;7.072;2023-02-28T02:40:13;-1.30;99.90
14236;DHT22;7202;50.718;7.072;2023-02-28T02:42:50;-1.30;99.90
14236;DHT22;7202;50.718;7.072;2023-02-28T02:45:23;-1.30;99.90
14236;DHT22;7202;50.718;7.072;2023-02-28T02:47:56;-1.30;99.90
14236;DHT22;7202;50.718;7.072;2023-02-28T02:50:31;-1.40;99.90
14236;DHT22;7202;50.718;7.072;2023-02-28T02:53:03;-1.40;99.90
14236;DHT22;7202;50.718;7.072;2023-02-28T02:55:36;-1.40;99.90
14236;DHT22;7202;50.718;7.072;2023-02-28T02:58:10;-1.40;99.90
14236;DHT22;7202;50.718;7.072;2023-02-28T03:00:44;-1.40;99.90
14236;DHT22;7202;50.718;7.072;2023-02-28T03:03:16;-1.40;99.90
14236;DHT22;7202;50.718;7.072;2023-02-28T03:05:50;-1.40;99.90
14236;DHT22;7202;50.718;7.072;2023-02-28T03:08:19;-1.40;99.90
14236;DHT22;7202;50.718;7.072;2023-02-28T03:10:50;-1.40;99.90
14236;DHT22;7202;50.718;7.072;2023-02-28T03:13:49;-1.50;99.90
14236;DHT22;7202;50.718;7.072;2023-02-28T03:16:36;-1.50;99.90
14236;DHT22;7202;50.718;7.072;2023-02-28T03:19:18;-1.50;99.90
14236;DHT22;7202;50.718;7.072;2023-02-28T03:22:04;-1.50;99.90
14236;DHT22;7202;50.718;7.072;2023-02-28T03:24:43;-1.60;99.90
14236;DHT22;7202;50.718;7.072;2023-02-28T03:27:19;-1.60;99.90
14236;DHT22;7202;50.718;7.072;2023-02-28T03:29:53;-1.60;99.90
14236;DHT22;7202;50.718;7.072;2023-02-28T03:32:28;-1.60;99.90
14236;DHT22;7202;50.718;7.072;2023-02-28T03:35:01;-1.60;99.90
14236;DHT22;7202;50.718;7.072;2023-02-28T03:37:38;-1.60;99.90
14236;DHT22;7202;50.718;7.072;2023-02-28T03:40:12;-1.60;99.90
14236;DHT22;7202;50.718;7.072;2023-02-28T03:42:46;-1.70;99.90
14236;DHT22;7202;50.718;7.072;2023-02-28T03:45:19;-1.60;99.90
14236;DHT22;7202;50.718;7.072;2023-02-28T03:47:52;-1.60;99.90
14236;DHT22;7202;50.718;7.072;2023-02-28T03:50:23;-1.70;99.90
14236;DHT22;7202;50.718;7.072;2023-02-28T03:52:58;-1.70;99.90
14236;DHT22;7202;50.718;7.072;2023-02-28T03:55:37;-1.70;99.90
14236;DHT22;7202;50.718;7.072;2023-02-28T03:58:15;-1.70;99.90
14236;DHT22;7202;50.718;7.072;2023-02-28T04:00:50;-1.70;99.90
14236;DHT22;7202;50.718;7.072;2023-02-28T04:03:20;-1.70;99.90
14236;DHT22;7202;50.718;7.072;2023-02-28T04:05:52;-1.70;99.90
14236;DHT22;7202;50.718;7.072;2023-02-28T04:08:23;-1.70;99.90
14236;DHT22;7202;50.718;7.072;2023-02-28T04:10:55;-1.70;99.90
14236;DHT22;7202;50.718;7.072;2023-02-28T04:13:24;-1.70;99.90
14236;DHT22;7202;50.718;7.072;2023-02-28T04:15:53;-1.70;99.90
14236;DHT22;7202;50.718;7.072;2023-02-28T04:18:21;-1.80;99.90
14236;DHT22;7202;50.718;7.072;2023-02-28T04:20:50;-1.80;99.90
14236;DHT22;7202;50.718;7.072;2023-02-28T04:23:19;-1.80;99.90
14236;DHT22;7202;50.718;7.072;2023-02-28T04:25:48;-1.80;99.90
14236;DHT22;7202;50.718;7.072;2023-02-28T04:28:18;-1.80;99.90
14236;DHT22;7202;50.718;7.072;2023-02-28T04:30:47;-1.80;99.90
14236;DHT22;7202;50.718;7.072;2023-02-28T04:33:15;-1.90;99.90
14236;DHT22;7202;50.718;7.072;2023-02-28T04:35:44;-1.90;99.90
14236;DHT22;7202;50.718;7.072;2023-02-28T04:38:12;-1.90;99.90
14236;DHT22;7202;50.718;7.072;2023-02-28T04:40:41;-1.90;99.90
14236;DHT22;7202;50.718;7.072;2023-02-28T04:43:11;-1.90;99.90
14236;DHT22;7202;50.718;7.072;2023-02-28T04:45:39;-1.90;99.90
14236;DHT22;7202;50.718;7.072;2023-02-28T04:48:08;-1.80;99.90
14236;DHT22;7202;50.718;7.072;2023-02-28T04:50:37;-1.90;99.90
14236;DHT22;7202;50.718;7.072;2023-02-28T04:53:05;-2.00;99.90
14236;DHT22;7202;50.718;7.072;2023-02-28T04:55:34;-2.00;99.90
14236;DHT22;7202;50.718;7.072;2023-02-28T04:58:02;-2.00;99.90
14236;DHT22;7202;50.718;7.072;2023-02-28T05:00:32;-2.00;99.90
14236;DHT22;7202;50.718;7.072;2023-02-28T05:03:01;-2.00;99.90
14236;DHT22;7202;50.718;7.072;2023-02-28T05:05:30;-2.00;99.90
14236;DHT22;7202;50.718;7.072;2023-02-28T05:07:58;-2.10;99.90
14236;DHT22;7202;50.718;7.072;2023-02-28T05:10:27;-2.10;99.90
14236;DHT22;7202;50.718;7.072;2023-02-28T05:12:56;-2.10;99.90
14236;DHT22;7202;50.718;7.072;2023-02-28T05:15:24;-2.10;99.90
14236;DHT22;7202;50.718;7.072;2023-02-28T05:17:54;-2.10;99.90
14236;DHT22;7202;50.718;7.072;2023-02-28T05:20:23;-2.10;99.90
14236;DHT22;7202;50.718;7.072;2023-02-28T05:22:51;-2.10;99.90
14236;DHT22;7202;50.718;7.072;2023-02-28T05:25:21;-2.20;99.90
14236;DHT22;7202;50.718;7.072;2023-02-28T05:27:50;-2.10;99.90
14236;DHT22;7202;50.718;7.072;2023-02-28T05:30:18;-2.10;99.90
14236;DHT22;7202;50.718;7.072;2023-02-28T05:32:51;-2.20;99.90
14236;DHT22;7202;50.718;7.072;2023-02-28T05:35:21;-2.10;99.90
14236;DHT22;7202;50.718;7.072;2023-02-28T05:37:50;-2.20;99.90
14236;DHT22;7202;50.718;7.072;2023-02-28T05:40:18;-2.20;99.90
14236;DHT22;7202;50.718;7.072;2023-02-28T05:42:49;-2.10;99.90
14236;DHT22;7202;50.718;7.072;2023-02-28T05:45:18;-2.10;99.90
14236;DHT22;7202;50.718;7.072;2023-02-28T05:47:47;-2.10;99.90
14236;DHT22;7202;50.718;7.072;2023-02-28T05:50:15;-2.10;99.90
14236;DHT22;7202;50.718;7.072;2023-02-28T05:52:49;-2.10;99.90
14236;DHT22;7202;50.718;7.072;2023-02-28T05:55:17;-2.10;99.90
14236;DHT22;7202;50.718;7.072;2023-02-28T05:57:46;-2.10;99.90
14236;DHT22;7202;50.718;7.072;2023-02-28T06:00:15;-2.10;99.90
14236;DHT22;7202;50.718;7.072;2023-02-28T06:02:45;-2.20;99.90
14236;DHT22;7202;50.718;7.072;2023-02-28T06:05:15;-2.20;99.90
14236;DHT22;7202;50.718;7.072;2023-02-28T06:07:46;-2.20;99.90
14236;DHT22;7202;50.718;7.072;2023-02-28T06:10:15;-2.20;99.90
14236;DHT22;7202;50.718;7.072;2023-02-28T06:12:43;-2.20;99.90
14236;DHT22;7202;50.718;7.072;2023-02-28T06:15:13;-2.20;99.90
14236;DHT22;7202;50.718;7.072;2023-02-28T06:17:42;-2.20;99.90
14236;DHT22;7202;50.718;7.072;2023-02-28T06:20:12;-2.20;99.90
14236;DHT22;7202;50.718;7.072;2023-02-28T06:22:41;-2.30;99.90
14236;DHT22;7202;50.718;7.072;2023-02-28T06:25:11;-2.30;99.90
14236;DHT22;7202;50.718;7.072;2023-02-28T06:27:39;-2.30;99.90
14236;DHT22;7202;50.718;7.072;2023-02-28T06:30:09;-2.30;99.90
14236;DHT22;7202;50.718;7.072;2023-02-28T06:32:38;-2.30;99.90
14236;DHT22;7202;50.718;7.072;2023-02-28T06:35:07;-2.30;99.90
14236;DHT22;7202;50.718;7.072;2023-02-28T06:37:36;-2.30;99.90
14236;DHT22;7202;50.718;7.072;2023-02-28T06:40:11;-2.30;99.90
14236;DHT22;7202;50.718;7.072;2023-02-28T06:42:41;-2.30;99.90
14236;DHT22;7202;50.718;7.072;2023-02-28T06:45:11;-2.30;99.90
14236;DHT22;7202;50.718;7.072;2023-02-28T06:47:41;-2.20;99.90
14236;DHT22;7202;50.718;7.072;2023-02-28T06:50:11;-2.20;99.90
14236;DHT22;7202;50.718;7.072;2023-02-28T06:52:40;-2.20;99.90
14236;DHT22;7202;50.718;7.072;2023-02-28T06:55:10;-2.20;99.90
14236;DHT22;7202;50.718;7.072;2023-02-28T06:57:39;-2.20;99.90
14236;DHT22;7202;50.718;7.072;2023-02-28T07:00:09;-2.20;99.90
14236;DHT22;7202;50.718;7.072;2023-02-28T07:02:38;-2.20;99.90
14236;DHT22;7202;50.718;7.072;2023-02-28T07:05:07;-2.20;99.90
14236;DHT22;7202;50.718;7.072;2023-02-28T07:07:36;-2.20;99.90
14236;DHT22;7202;50.718;7.072;2023-02-28T07:10:09;-2.20;99.90
14236;DHT22;7202;50.718;7.072;2023-02-28T07:12:39;-2.10;99.90
14236;DHT22;7202;50.718;7.072;2023-02-28T07:15:09;-2.10;99.90
14236;DHT22;7202;50.718;7.072;2023-02-28T07:17:38;-2.00;99.90
14236;DHT22;7202;50.718;7.072;2023-02-28T07:20:07;-2.00;99.90
14236;DHT22;7202;50.718;7.072;2023-02-28T07:22:36;-1.90;99.90
14236;DHT22;7202;50.718;7.072;2023-02-28T07:25:06;-1.80;99.90
14236;DHT22;7202;50.718;7.072;2023-02-28T07:27:35;-1.80;99.90
14236;DHT22;7202;50.718;7.072;2023-02-28T07:30:06;-1.60;99.90
14236;DHT22;7202;50.718;7.072;2023-02-28T07:32:35;-1.60;99.90
14236;DHT22;7202;50.718;7.072;2023-02-28T07:35:06;-1.40;99.90
14236;DHT22;7202;50.718;7.072;2023-02-28T07:37:35;-1.30;99.90
14236;DHT22;7202;50.718;7.072;2023-02-28T07:40:05;-1.20;99.90
14236;DHT22;7202;50.718;7.072;2023-02-28T07:42:36;-1.10;99.90
14236;DHT22;7202;50.718;7.072;2023-02-28T07:45:08;-0.90;99.90
14236;DHT22;7202;50.718;7.072;2023-02-28T07:47:39;-0.80;99.90
14236;DHT22;7202;50.718;7.072;2023-02-28T07:50:09;-0.70;99.90
14236;DHT22;7202;50.718;7.072;2023-02-28T07:52:39;-0.60;99.90
14236;DHT22;7202;50.718;7.072;2023-02-28T07:55:09;-0.50;99.90
14236;DHT22;7202;50.718;7.072;2023-02-28T07:57:38;-0.40;99.90
14236;DHT22;7202;50.718;7.072;2023-02-28T08:00:10;-0.20;99.90
14236;DHT22;7202;50.718;7.072;2023-02-28T08:02:43;-0.10;99.90
14236;DHT22;7202;50.718;7.072;2023-02-28T08:05:11;0.00;99.90
14236;DHT22;7202;50.718;7.072;2023-02-28T08:07:40;0.10;99.90
14236;DHT22;7202;50.718;7.072;2023-02-28T08:10:10;0.20;99.90
14236;DHT22;7202;50.718;7.072;2023-02-28T08:12:38;0.30;99.90
14236;DHT22;7202;50.718;7.072;2023-02-28T08:15:09;0.40;99.90
14236;DHT22;7202;50.718;7.072;2023-02-28T08:17:38;0.50;99.90
14236;DHT22;7202;50.718;7.072;2023-02-28T08:20:07;0.50;99.90
14236;DHT22;7202;50.718;7.072;2023-02-28T08:22:37;0.60;99.90
14236;DHT22;7202;50.718;7.072;2023-02-28T08:25:06;0.70;99.90
14236;DHT22;7202;50.718;7.072;2023-02-28T08:27:36;0.80;99.90
14236;DHT22;7202;50.718;7.072;2023-02-28T08:30:06;0.90;99.90
14236;DHT22;7202;50.718;7.072;2023-02-28T08:32:36;1.00;99.90
14236;DHT22;7202;50.718;7.072;2023-02-28T08:35:05;1.10;99.90
14236;DHT22;7202;50.718;7.072;2023-02-28T08:37:36;1.10;99.90
14236;DHT22;7202;50.718;7.072;2023-02-28T08:40:06;1.20;99.90
14236;DHT22;7202;50.718;7.072;2023-02-28T08:42:35;1.30;99.90
14236;DHT22;7202;50.718;7.072;2023-02-28T08:45:05;1.30;99.90
14236;DHT22;7202;50.718;7.072;2023-02-28T08:47:35;1.40;99.90
14236;DHT22;7202;50.718;7.072;2023-02-28T08:50:05;1.50;99.90
14236;DHT22;7202;50.718;7.072;2023-02-28T08:52:34;1.50;99.90
14236;DHT22;7202;50.718;7.072;2023-02-28T08:55:02;1.60;99.90
14236;DHT22;7202;50.718;7.072;2023-02-28T08:57:31;1.70;99.90
14236;DHT22;7202;50.718;7.072;2023-02-28T09:00:00;1.70;99.90
14236;DHT22;7202;50.718;7.072;2023-02-28T09:02:31;1.80;99.90
14236;DHT22;7202;50.718;7.072;2023-02-28T09:05:02;1.80;99.90
14236;DHT22;7202;50.718;7.072;2023-02-28T09:07:31;1.80;99.90
14236;DHT22;7202;50.718;7.072;2023-02-28T09:09:59;1.80;99.90
14236;DHT22;7202;50.718;7.072;2023-02-28T09:12:32;2.00;99.90
14236;DHT22;7202;50.718;7.072;2023-02-28T09:15:02;2.10;99.90
14236;DHT22;7202;50.718;7.072;2023-02-28T09:17:30;2.20;99.90
14236;DHT22;7202;50.718;7.072;2023-02-28T09:19:59;2.20;99.90
14236;DHT22;7202;50.718;7.072;2023-02-28T09:22:29;2.30;99.90
14236;DHT22;7202;50.718;7.072;2023-02-28T09:24:58;2.30;99.90
14236;DHT22;7202;50.718;7.072;2023-02-28T09:27:26;2.50;99.90
14236;DHT22;7202;50.718;7.072;2023-02-28T09:29:55;2.50;99.90
14236;DHT22;7202;50.718;7.072;2023-02-28T09:32:23;2.60;99.90
14236;DHT22;7202;50.718;7.072;2023-02-28T09:34:52;2.70;99.90
14236;DHT22;7202;50.718;7.072;2023-02-28T09:37:21;2.70;99.90
14236;DHT22;7202;50.718;7.072;2023-02-28T09:39:51;2.70;99.90
14236;DHT22;7202;50.718;7.072;2023-02-28T09:42:23;2.70;99.90
14236;DHT22;7202;50.718;7.072;2023-02-28T09:44:53;2.70;99.90
14236;DHT22;7202;50.718;7.072;2023-02-28T09:47:28;2.70;99.90
14236;DHT22;7202;50.718;7.072;2023-02-28T09:50:15;2.80;99.90
14236;DHT22;7202;50.718;7.072;2023-02-28T09:52:48;2.90;99.90
14236;DHT22;7202;50.718;7.072;2023-02-28T09:55:25;3.00;99.90
14236;DHT22;7202;50.718;7.072;2023-02-28T09:58:01;3.10;99.90
14236;DHT22;7202;50.718;7.072;2023-02-28T10:00:33;3.10;99.90
14236;DHT22;7202;50.718;7.072;2023-02-28T10:03:16;3.20;99.90
14236;DHT22;7202;50.718;7.072;2023-02-28T10:05:53;3.30;99.90
14236;DHT22;7202;50.718;7.072;2023-02-28T10:08:27;3.40;99.90
14236;DHT22;7202;50.718;7.072;2023-02-28T10:11:01;3.50;99.90
14236;DHT22;7202;50.718;7.072;2023-02-28T10:13:33;3.60;99.90
14236;DHT22;7202;50.718;7.072;2023-02-28T10:16:06;3.60;99.90
14236;DHT22;7202;50.718;7.072;2023-02-28T10:18:43;3.70;99.90
14236;DHT22;7202;50.718;7.072;2023-02-28T10:21:19;3.80;99.90
14236;DHT22;7202;50.718;7.072;2023-02-28T10:23:49;3.70;99.90
14236;DHT22;7202;50.718;7.072;2023-02-28T10:26:23;3.90;99.90
14236;DHT22;7202;50.718;7.072;2023-02-28T10:28:55;3.90;99.90
14236;DHT22;7202;50.718;7.072;2023-02-28T10:31:24;3.80;99.90
14236;DHT22;7202;50.718;7.072;2023-02-28T10:33:53;3.90;99.90
14236;DHT22;7202;50.718;7.072;2023-02-28T10:36:22;3.90;99.90
14236;DHT22;7202;50.718;7.072;2023-02-28T10:38:50;3.90;99.90
14236;DHT22;7202;50.718;7.072;2023-02-28T10:41:30;4.00;99.90
14236;DHT22;7202;50.718;7.072;2023-02-28T10:44:14;4.10;99.90
14236;DHT22;7202;50.718;7.072;2023-02-28T10:46:43;4.10;99.90
14236;DHT22;7202;50.718;7.072;2023-02-28T10:49:19;4.20;99.90
14236;DHT22;7202;50.718;7.072;2023-02-28T10:51:52;4.30;99.90
14236;DHT22;7202;50.718;7.072;2023-02-28T10:54:24;4.40;99.90
14236;DHT22;7202;50.718;7.072;2023-02-28T10:57:16;4.50;99.90
14236;DHT22;7202;50.718;7.072;2023-02-28T10:59:45;4.60;99.90
14236;DHT22;7202;50.718;7.072;2023-02-28T11:02:33;4.70;99.90
14236;DHT22;7202;50.718;7.072;2023-02-28T11:05:23;4.70;99.90
14236;DHT22;7202;50.718;7.072;2023-02-28T11:07:53;4.70;99.90
14236;DHT22;7202;50.718;7.072;2023-02-28T11:10:25;4.70;99.90
14236;DHT22;7202;50.718;7.072;2023-02-28T11:12:56;4.80;99.90
14236;DHT22;7202;50.718;7.072;2023-02-28T11:15:28;4.80;99.90
14236;DHT22;7202;50.718;7.072;2023-02-28T11:18:00;4.90;99.90
14236;DHT22;7202;50.718;7.072;2023-02-28T11:20:31;4.90;99.90
14236;DHT22;7202;50.718;7.072;2023-02-28T11:23:02;4.90;99.90
14236;DHT22;7202;50.718;7.072;2023-02-28T11:25:33;5.00;99.90
14236;DHT22;7202;50.718;7.072;2023-02-28T11:28:04;5.10;99.90
14236;DHT22;7202;50.718;7.072;2023-02-28T11:30:36;5.20;99.90
14236;DHT22;7202;50.718;7.072;2023-02-28T11:33:22;5.30;99.90
14236;DHT22;7202;50.718;7.072;2023-02-28T11:35:52;5.40;99.90
14236;DHT22;7202;50.718;7.072;2023-02-28T11:38:21;5.40;99.90
14236;DHT22;7202;50.718;7.072;2023-02-28T11:41:02;5.40;99.90
14236;DHT22;7202;50.718;7.072;2023-02-28T11:43:46;5.40;99.90
14236;DHT22;7202;50.718;7.072;2023-02-28T11:46:27;5.40;99.90
14236;DHT22;7202;50.718;7.072;2023-02-28T11:49:04;5.40;99.90
14236;DHT22;7202;50.718;7.072;2023-02-28T11:51:44;5.40;99.90
14236;DHT22;7202;50.718;7.072;2023-02-28T11:54:29;5.40;99.90
14236;DHT22;7202;50.718;7.072;2023-02-28T11:57:03;5.50;99.90
14236;DHT22;7202;50.718;7.072;2023-02-28T11:59:49;5.50;99.90
14236;DHT22;7202;50.718;7.072;2023-02-28T12:02:27;5.60;99.90
14236;DHT22;7202;50.718;7.072;2023-02-28T12:05:10;5.60;99.90
14236;DHT22;7202;50.718;7.072;2023-02-28T12:07:47;5.70;99.90
14236;DHT22;7202;50.718;7.072;2023-02-28T12:10:22;5.70;99.90
14236;DHT22;7202;50.718;7.072;2023-02-28T12:13:08;5.70;99.90
14236;DHT22;7202;50.718;7.072;2023-02-28T12:16:13;5.70;99.90
14236;DHT22;7202;50.718;7.072;2023-02-28T12:18:57;5.70;99.90
14236;DHT22;7202;50.718;7.072;2023-02-28T12:21:36;5.70;99.90
14236;DHT22;7202;50.718;7.072;2023-02-28T12:27:06;5.70;99.90
14236;DHT22;7202;50.718;7.072;2023-02-28T12:29:43;5.80;99.90
14236;DHT22;7202;50.718;7.072;2023-02-28T12:32:16;5.80;99.90
14236;DHT22;7202;50.718;7.072;2023-02-28T12:34:49;5.80;99.90
14236;DHT22;7202;50.718;7.072;2023-02-28T12:37:24;5.70;99.90
14236;DHT22;7202;50.718;7.072;2023-02-28T12:40:00;5.70;99.90
14236;DHT22;7202;50.718;7.072;2023-02-28T12:42:36;5.70;99.90
14236;DHT22;7202;50.718;7.072;2023-02-28T12:45:10;5.70;99.90
14236;DHT22;7202;50.718;7.072;2023-02-28T12:47:45;5.80;99.90
14236;DHT22;7202;50.718;7.072;2023-02-28T12:50:16;5.80;99.90
14236;DHT22;7202;50.718;7.072;2023-02-28T12:52:54;5.90;99.90
14236;DHT22;7202;50.718;7.072;2023-02-28T12:55:33;6.00;99.90
14236;DHT22;7202;50.718;7.072;2023-02-28T12:58:10;6.00;99.90
14236;DHT22;7202;50.718;7.072;2023-02-28T13:00:52;6.00;99.90
14236;DHT22;7202;50.718;7.072;2023-02-28T13:03:51;6.00;99.90
14236;DHT22;7202;50.718;7.072;2023-02-28T13:06:32;6.10;99.90
14236;DHT22;7202;50.718;7.072;2023-02-28T13:09:10;6.10;99.90
14236;DHT22;7202;50.718;7.072;2023-02-28T13:11:43;6.10;99.90
14236;DHT22;7202;50.718;7.072;2023-02-28T13:14:25;6.20;99.90
14236;DHT22;7202;50.718;7.072;2023-02-28T13:16:57;6.10;99.90
14236;DHT22;7202;50.718;7.072;2023-02-28T13:19:30;6.20;99.90
14236;DHT22;7202;50.718;7.072;2023-02-28T13:21:59;6.20;99.90
14236;DHT22;7202;50.718;7.072;2023-02-28T13:24:45;6.20;99.90
14236;DHT22;7202;50.718;7.072;2023-02-28T13:27:35;6.30;99.90
14236;DHT22;7202;50.718;7.072;2023-02-28T13:33:26;6.30;99.90
14236;DHT22;7202;50.718;7.072;2023-02-28T13:36:21;6.30;99.90
14236;DHT22;7202;50.718;7.072;2023-02-28T13:38:52;6.30;99.90
14236;DHT22;7202;50.718;7.072;2023-02-28T13:41:44;6.30;99.90
14236;DHT22;7202;50.718;7.072;2023-02-28T13:44:16;6.30;99.90
14236;DHT22;7202;50.718;7.072;2023-02-28T13:47:22;6.30;99.90
14236;DHT22;7202;50.718;7.072;2023-02-28T13:49:52;6.30;99.90
14236;DHT22;7202;50.718;7.072;2023-02-28T13:52:24;6.30;99.90
14236;DHT22;7202;50.718;7.072;2023-02-28T13:55:10;6.30;99.90
14236;DHT22;7202;50.718;7.072;2023-02-28T13:57:53;6.30;99.90
14236;DHT22;7202;50.718;7.072;2023-02-28T14:00:31;6.30;99.90
14236;DHT22;7202;50.718;7.072;2023-02-28T14:03:17;6.40;99.90
14236;DHT22;7202;50.718;7.072;2023-02-28T14:08:57;6.40;99.90
14236;DHT22;7202;50.718;7.072;2023-02-28T14:11:32;6.30;99.90
14236;DHT22;7202;50.718;7.072;2023-02-28T14:14:02;6.30;99.90
14236;DHT22;7202;50.718;7.072;2023-02-28T14:16:40;6.20;99.90
14236;DHT22;7202;50.718;7.072;2023-02-28T14:19:12;6.30;99.90
14236;DHT22;7202;50.718;7.072;2023-02-28T14:21:58;6.30;99.90
14236;DHT22;7202;50.718;7.072;2023-02-28T14:24:47;6.30;99.90
14236;DHT22;7202;50.718;7.072;2023-02-28T14:27:29;6.30;99.90
14236;DHT22;7202;50.718;7.072;2023-02-28T14:30:29;6.30;99.90
14236;DHT22;7202;50.718;7.072;2023-02-28T14:33:16;6.30;99.90
14236;DHT22;7202;50.718;7.072;2023-02-28T14:36:06;6.20;99.90
14236;DHT22;7202;50.718;7.072;2023-02-28T14:38:42;6.20;99.90
14236;DHT22;7202;50.718;7.072;2023-02-28T14:41:20;6.20;99.90
14236;DHT22;7202;50.718;7.072;2023-02-28T14:43:52;6.10;99.90
14236;DHT22;7202;50.718;7.072;2023-02-28T14:46:22;6.10;99.90
14236;DHT22;7202;50.718;7.072;2023-02-28T14:48:51;6.10;99.90
14236;DHT22;7202;50.718;7.072;2023-02-28T14:51:22;6.10;99.90
14236;DHT22;7202;50.718;7.072;2023-02-28T14:53:57;6.10;99.90
14236;DHT22;7202;50.718;7.072;2023-02-28T14:56:30;6.10;99.90
14236;DHT22;7202;50.718;7.072;2023-02-28T14:59:01;6.10;99.90
14236;DHT22;7202;50.718;7.072;2023-02-28T15:01:30;6.10;99.90
14236;DHT22;7202;50.718;7.072;2023-02-28T15:04:03;6.10;99.90
14236;DHT22;7202;50.718;7.072;2023-02-28T15:06:32;6.00;99.90
14236;DHT22;7202;50.718;7.072;2023-02-28T15:09:09;6.10;99.90
14236;DHT22;7202;50.718;7.072;2023-02-28T15:11:39;6.10;99.90
14236;DHT22;7202;50.718;7.072;2023-02-28T15:14:15;6.00;99.90
14236;DHT22;7202;50.718;7.072;2023-02-28T15:16:46;6.10;99.90
14236;DHT22;7202;50.718;7.072;2023-02-28T15:19:21;6.00;99.90
14236;DHT22;7202;50.718;7.072;2023-02-28T15:21:55;6.00;99.90
14236;DHT22;7202;50.718;7.072;2023-02-28T15:24:32;6.00;99.90
14236;DHT22;7202;50.718;7.072;2023-02-28T15:27:07;5.90;99.90
14236;DHT22;7202;50.718;7.072;2023-02-28T15:29:43;5.90;99.90
14236;DHT22;7202;50.718;7.072;2023-02-28T15:32:26;5.90;99.90
14236;DHT22;7202;50.718;7.072;2023-02-28T15:34:57;5.90;99.90
14236;DHT22;7202;50.718;7.072;2023-02-28T15:37:29;5.90;99.90
14236;DHT22;7202;50.718;7.072;2023-02-28T15:40:06;5.90;99.90
14236;DHT22;7202;50.718;7.072;2023-02-28T15:42:37;5.90;99.90
14236;DHT22;7202;50.718;7.072;2023-02-28T15:45:27;5.80;99.90
14236;DHT22;7202;50.718;7.072;2023-02-28T15:47:56;5.80;99.90
14236;DHT22;7202;50.718;7.072;2023-02-28T15:50:34;5.80;99.90
14236;DHT22;7202;50.718;7.072;2023-02-28T15:53:03;5.80;99.90
14236;DHT22;7202;50.718;7.072;2023-02-28T15:55:32;5.80;99.90
14236;DHT22;7202;50.718;7.072;2023-02-28T15:58:02;5.80;99.90
14236;DHT22;7202;50.718;7.072;2023-02-28T16:00:32;5.70;99.90
14236;DHT22;7202;50.718;7.072;2023-02-28T16:03:01;5.70;99.90
14236;DHT22;7202;50.718;7.072;2023-02-28T16:05:30;5.60;99.90
14236;DHT22;7202;50.718;7.072;2023-02-28T16:08:14;5.60;99.90
14236;DHT22;7202;50.718;7.072;2023-02-28T16:10:43;5.60;99.90
14236;DHT22;7202;50.718;7.072;2023-02-28T16:13:13;5.60;99.90
14236;DHT22;7202;50.718;7.072;2023-02-28T16:15:43;5.60;99.90
14236;DHT22;7202;50.718;7.072;2023-02-28T16:18:12;5.60;99.90
14236;DHT22;7202;50.718;7.072;2023-02-28T16:20:41;5.60;99.90
14236;DHT22;7202;50.718;7.072;2023-02-28T16:23:11;5.60;99.90
14236;DHT22;7202;50.718;7.072;2023-02-28T16:25:42;5.50;99.90
14236;DHT22;7202;50.718;7.072;2023-02-28T16:28:17;5.40;99.90
14236;DHT22;7202;50.718;7.072;2023-02-28T16:30:47;5.40;99.90
14236;DHT22;7202;50.718;7.072;2023-02-28T16:33:16;5.40;99.90
14236;DHT22;7202;50.718;7.072;2023-02-28T16:35:45;5.30;99.90
14236;DHT22;7202;50.718;7.072;2023-02-28T16:38:13;5.30;99.90
14236;DHT22;7202;50.718;7.072;2023-02-28T16:40:42;5.20;99.90
14236;DHT22;7202;50.718;7.072;2023-02-28T16:43:16;5.20;99.90
14236;DHT22;7202;50.718;7.072;2023-02-28T16:45:46;5.10;99.90
14236;DHT22;7202;50.718;7.072;2023-02-28T16:48:16;5.20;99.90